sensor_id;sensor_type;location;lat;lon;timestamp;P1;durP1;ratioP1;P2;durP2;ratioP2
81952;SDS011;71454;55.476;14.282;2024-02-21T00:00:54;23.90;;;6.43;;
81952;SDS011;71454;55.476;14.282;2024-02-21T00:03:19;26.57;;;6.30;;
81952;SDS011;71454;55.476;14.282;2024-02-21T00:05:45;25.05;;;6.60;;
81952;SDS011;71454;55.476;14.282;2024-02-21T00:08:10;35.40;;;6.45;;
81952;SDS011;71454;55.476;14.282;2024-02-21T00:10:35;29.38;;;7.53;;
81952;SDS011;71454;55.476;14.282;2024-02-21T00:13:01;25.05;;;5.97;;
81952;SDS011;71454;55.476;14.282;2024-02-21T00:15:26;33.83;;;7.22;;
81952;SDS011;71454;55.476;14.282;2024-02-21T00:17:51;25.80;;;6.93;;
81952;SDS011;71454;55.476;14.282;2024-02-21T00:20:17;31.02;;;6.35;;
81952;SDS011;71454;55.476;14.282;2024-02-21T00:22:42;29.17;;;7.25;;
81952;SDS011;71454;55.476;14.282;2024-02-21T00:25:08;29.30;;;7.65;;
81952;SDS011;71454;55.476;14.282;2024-02-21T00:27:33;32.80;;;7.70;;
81952;SDS011;71454;55.476;14.282;2024-02-21T00:29:58;35.95;;;9.00;;
81952;SDS011;71454;55.476;14.282;2024-02-21T00:32:24;26.38;;;7.18;;
81952;SDS011;71454;55.476;14.282;2024-02-21T00:34:49;21.80;;;6.43;;
81952;SDS011;71454;55.476;14.282;2024-02-21T00:37:14;30.60;;;7.30;;
81952;SDS011;71454;55.476;14.282;2024-02-21T00:39:39;24.52;;;6.25;;
81952;SDS011;71454;55.476;14.282;2024-02-21T00:42:05;32.25;;;6.63;;
81952;SDS011;71454;55.476;14.282;2024-02-21T00:44:32;29.63;;;7.70;;
81952;SDS011;71454;55.476;14.282;2024-02-21T00:46:57;30.65;;;8.15;;
81952;SDS011;71454;55.476;14.282;2024-02-21T00:49:22;29.65;;;6.85;;
81952;SDS011;71454;55.476;14.282;2024-02-21T00:51:48;23.13;;;7.35;;
81952;SDS011;71454;55.476;14.282;2024-02-21T00:54:13;26.37;;;6.13;;
81952;SDS011;71454;55.476;14.282;2024-02-21T00:56:38;28.42;;;7.30;;
81952;SDS011;71454;55.476;14.282;2024-02-21T00:59:04;31.38;;;6.97;;
81952;SDS011;71454;55.476;14.282;2024-02-21T01:01:29;24.70;;;5.20;;
81952;SDS011;71454;55.476;14.282;2024-02-21T01:03:54;30.30;;;7.47;;
81952;SDS011;71454;55.476;14.282;2024-02-21T01:06:20;34.85;;;6.45;;
81952;SDS011;71454;55.476;14.282;2024-02-21T01:08:46;27.80;;;7.25;;
81952;SDS011;71454;55.476;14.282;2024-02-21T01:11:11;20.65;;;5.95;;
81952;SDS011;71454;55.476;14.282;2024-02-21T01:13:37;29.53;;;6.57;;
81952;SDS011;71454;55.476;14.282;2024-02-21T01:16:02;25.70;;;7.05;;
81952;SDS011;71454;55.476;14.282;2024-02-21T01:18:27;21.17;;;5.55;;
81952;SDS011;71454;55.476;14.282;2024-02-21T01:20:53;23.17;;;5.95;;
81952;SDS011;71454;55.476;14.282;2024-02-21T01:23:18;27.38;;;6.57;;
81952;SDS011;71454;55.476;14.282;2024-02-21T01:25:43;23.63;;;6.70;;
81952;SDS011;71454;55.476;14.282;2024-02-21T01:28:09;25.38;;;6.90;;
81952;SDS011;71454;55.476;14.282;2024-02-21T01:30:34;21.17;;;5.85;;
81952;SDS011;71454;55.476;14.282;2024-02-21T01:32:59;21.58;;;6.03;;
81952;SDS011;71454;55.476;14.282;2024-02-21T01:35:25;27.73;;;7.03;;
81952;SDS011;71454;55.476;14.282;2024-02-21T01:37:50;24.47;;;6.57;;
81952;SDS011;71454;55.476;14.282;2024-02-21T01:40:16;22.45;;;6.80;;
81952;SDS011;71454;55.476;14.282;2024-02-21T01:42:42;30.73;;;7.32;;
81952;SDS011;71454;55.476;14.282;2024-02-21T01:45:07;29.00;;;7.30;;
81952;SDS011;71454;55.476;14.282;2024-02-21T01:47:32;26.00;;;7.38;;
81952;SDS011;71454;55.476;14.282;2024-02-21T01:49:58;23.40;;;6.50;;
81952;SDS011;71454;55.476;14.282;2024-02-21T01:52:23;32.03;;;7.22;;
81952;SDS011;71454;55.476;14.282;2024-02-21T01:54:49;25.05;;;7.00;;
81952;SDS011;71454;55.476;14.282;2024-02-21T01:57:14;27.25;;;7.90;;
81952;SDS011;71454;55.476;14.282;2024-02-21T01:59:40;27.13;;;7.82;;
81952;SDS011;71454;55.476;14.282;2024-02-21T02:02:05;29.23;;;7.32;;
81952;SDS011;71454;55.476;14.282;2024-02-21T02:04:30;24.98;;;8.65;;
81952;SDS011;71454;55.476;14.282;2024-02-21T02:06:56;29.67;;;7.30;;
81952;SDS011;71454;55.476;14.282;2024-02-21T02:09:22;30.23;;;8.60;;
81952;SDS011;71454;55.476;14.282;2024-02-21T02:11:47;33.65;;;9.20;;
81952;SDS011;71454;55.476;14.282;2024-02-21T02:14:13;32.85;;;8.63;;
81952;SDS011;71454;55.476;14.282;2024-02-21T02:16:38;36.17;;;9.93;;
81952;SDS011;71454;55.476;14.282;2024-02-21T02:19:03;31.20;;;10.43;;
81952;SDS011;71454;55.476;14.282;2024-02-21T02:21:29;29.53;;;10.57;;
81952;SDS011;71454;55.476;14.282;2024-02-21T02:23:55;29.50;;;10.68;;
81952;SDS011;71454;55.476;14.282;2024-02-21T02:26:20;33.88;;;11.40;;
81952;SDS011;71454;55.476;14.282;2024-02-21T02:28:46;33.90;;;11.40;;
81952;SDS011;71454;55.476;14.282;2024-02-21T02:31:11;38.33;;;11.13;;
81952;SDS011;71454;55.476;14.282;2024-02-21T02:33:36;35.85;;;13.18;;
81952;SDS011;71454;55.476;14.282;2024-02-21T02:36:02;42.33;;;13.53;;
81952;SDS011;71454;55.476;14.282;2024-02-21T02:38:27;37.72;;;12.20;;
81952;SDS011;71454;55.476;14.282;2024-02-21T02:40:52;42.43;;;14.60;;
81952;SDS011;71454;55.476;14.282;2024-02-21T02:43:17;37.03;;;13.53;;
81952;SDS011;71454;55.476;14.282;2024-02-21T02:45:43;37.25;;;13.40;;
81952;SDS011;71454;55.476;14.282;2024-02-21T02:48:08;42.23;;;14.20;;
81952;SDS011;71454;55.476;14.282;2024-02-21T02:50:33;45.38;;;13.50;;
81952;SDS011;71454;55.476;14.282;2024-02-21T02:52:58;40.97;;;13.02;;
81952;SDS011;71454;55.476;14.282;2024-02-21T02:55:24;38.75;;;13.45;;
81952;SDS011;71454;55.476;14.282;2024-02-21T02:57:49;40.25;;;14.73;;
81952;SDS011;71454;55.476;14.282;2024-02-21T03:00:14;42.55;;;14.80;;
81952;SDS011;71454;55.476;14.282;2024-02-21T03:02:41;42.90;;;13.60;;
81952;SDS011;71454;55.476;14.282;2024-02-21T03:05:14;42.22;;;13.63;;
81952;SDS011;71454;55.476;14.282;2024-02-21T03:07:39;38.97;;;13.63;;
81952;SDS011;71454;55.476;14.282;2024-02-21T03:10:05;47.00;;;14.93;;
81952;SDS011;71454;55.476;14.282;2024-02-21T03:12:30;46.45;;;15.73;;
81952;SDS011;71454;55.476;14.282;2024-02-21T03:14:55;47.87;;;16.77;;
81952;SDS011;71454;55.476;14.282;2024-02-21T03:17:21;45.47;;;14.10;;
81952;SDS011;71454;55.476;14.282;2024-02-21T03:19:46;41.40;;;13.55;;
81952;SDS011;71454;55.476;14.282;2024-02-21T03:22:13;42.53;;;14.75;;
81952;SDS011;71454;55.476;14.282;2024-02-21T03:24:39;42.22;;;14.52;;
81952;SDS011;71454;55.476;14.282;2024-02-21T03:27:04;42.00;;;14.35;;
81952;SDS011;71454;55.476;14.282;2024-02-21T03:29:29;40.60;;;14.98;;
81952;SDS011;71454;55.476;14.282;2024-02-21T03:31:54;48.50;;;15.33;;
81952;SDS011;71454;55.476;14.282;2024-02-21T03:34:20;38.27;;;14.53;;
81952;SDS011;71454;55.476;14.282;2024-02-21T03:36:45;41.37;;;14.77;;
81952;SDS011;71454;55.476;14.282;2024-02-21T03:39:10;41.42;;;15.68;;
81952;SDS011;71454;55.476;14.282;2024-02-21T03:41:35;38.80;;;14.80;;
81952;SDS011;71454;55.476;14.282;2024-02-21T03:44:01;41.60;;;15.35;;
81952;SDS011;71454;55.476;14.282;2024-02-21T03:46:26;48.22;;;16.77;;
81952;SDS011;71454;55.476;14.282;2024-02-21T03:48:52;33.28;;;14.77;;
81952;SDS011;71454;55.476;14.282;2024-02-21T03:51:17;40.58;;;15.02;;
81952;SDS011;71454;55.476;14.282;2024-02-21T03:53:42;46.45;;;15.02;;
81952;SDS011;71454;55.476;14.282;2024-02-21T03:56:08;38.17;;;14.68;;
81952;SDS011;71454;55.476;14.282;2024-02-21T03:58:33;44.10;;;15.68;;
81952;SDS011;71454;55.476;14.282;2024-02-21T04:01:02;48.03;;;15.60;;
81952;SDS011;71454;55.476;14.282;2024-02-21T04:03:27;49.03;;;17.10;;
81952;SDS011;71454;55.476;14.282;2024-02-21T04:05:52;40.08;;;15.30;;
81952;SDS011;71454;55.476;14.282;2024-02-21T04:08:18;50.65;;;14.27;;
81952;SDS011;71454;55.476;14.282;2024-02-21T04:10:43;47.72;;;17.08;;
81952;SDS011;71454;55.476;14.282;2024-02-21T04:13:09;43.13;;;15.63;;
81952;SDS011;71454;55.476;14.282;2024-02-21T04:15:34;50.55;;;17.35;;
81952;SDS011;71454;55.476;14.282;2024-02-21T04:18:00;54.40;;;17.48;;
81952;SDS011;71454;55.476;14.282;2024-02-21T04:20:25;42.58;;;15.70;;
81952;SDS011;71454;55.476;14.282;2024-02-21T04:22:50;60.08;;;16.52;;
81952;SDS011;71454;55.476;14.282;2024-02-21T04:25:16;48.47;;;14.95;;
81952;SDS011;71454;55.476;14.282;2024-02-21T04:27:41;45.27;;;16.27;;
81952;SDS011;71454;55.476;14.282;2024-02-21T04:30:07;47.28;;;15.27;;
81952;SDS011;71454;55.476;14.282;2024-02-21T04:32:32;39.22;;;14.20;;
81952;SDS011;71454;55.476;14.282;2024-02-21T04:34:57;39.72;;;13.73;;
81952;SDS011;71454;55.476;14.282;2024-02-21T04:37:23;30.05;;;12.90;;
81952;SDS011;71454;55.476;14.282;2024-02-21T04:39:49;43.53;;;14.98;;
81952;SDS011;71454;55.476;14.282;2024-02-21T04:42:14;34.22;;;13.68;;
81952;SDS011;71454;55.476;14.282;2024-02-21T04:44:40;34.13;;;12.50;;
81952;SDS011;71454;55.476;14.282;2024-02-21T04:47:05;33.75;;;12.25;;
81952;SDS011;71454;55.476;14.282;2024-02-21T04:49:31;32.38;;;13.07;;
81952;SDS011;71454;55.476;14.282;2024-02-21T04:52:04;39.50;;;15.10;;
81952;SDS011;71454;55.476;14.282;2024-02-21T04:54:29;36.75;;;13.95;;
81952;SDS011;71454;55.476;14.282;2024-02-21T04:56:54;42.50;;;14.80;;
81952;SDS011;71454;55.476;14.282;2024-02-21T04:59:19;37.97;;;13.55;;
81952;SDS011;71454;55.476;14.282;2024-02-21T05:01:45;32.13;;;10.93;;
81952;SDS011;71454;55.476;14.282;2024-02-21T05:04:10;35.33;;;13.67;;
81952;SDS011;71454;55.476;14.282;2024-02-21T05:06:41;35.03;;;14.07;;
81952;SDS011;71454;55.476;14.282;2024-02-21T05:09:07;36.45;;;13.90;;
81952;SDS011;71454;55.476;14.282;2024-02-21T05:11:36;37.80;;;14.20;;
81952;SDS011;71454;55.476;14.282;2024-02-21T05:14:01;35.60;;;14.13;;
81952;SDS011;71454;55.476;14.282;2024-02-21T05:16:26;37.50;;;13.55;;
81952;SDS011;71454;55.476;14.282;2024-02-21T05:18:52;37.90;;;15.13;;
81952;SDS011;71454;55.476;14.282;2024-02-21T05:21:17;39.63;;;13.43;;
81952;SDS011;71454;55.476;14.282;2024-02-21T05:23:42;33.60;;;14.27;;
81952;SDS011;71454;55.476;14.282;2024-02-21T05:26:08;29.80;;;11.63;;
81952;SDS011;71454;55.476;14.282;2024-02-21T05:28:34;37.30;;;13.40;;
81952;SDS011;71454;55.476;14.282;2024-02-21T05:30:59;33.55;;;12.43;;
81952;SDS011;71454;55.476;14.282;2024-02-21T05:33:24;28.17;;;11.02;;
81952;SDS011;71454;55.476;14.282;2024-02-21T05:35:50;30.70;;;12.10;;
81952;SDS011;71454;55.476;14.282;2024-02-21T05:38:15;29.15;;;11.73;;
81952;SDS011;71454;55.476;14.282;2024-02-21T05:40:41;35.85;;;14.18;;
81952;SDS011;71454;55.476;14.282;2024-02-21T05:43:09;38.80;;;13.27;;
81952;SDS011;71454;55.476;14.282;2024-02-21T05:45:34;34.70;;;13.65;;
81952;SDS011;71454;55.476;14.282;2024-02-21T05:47:59;41.47;;;13.70;;
81952;SDS011;71454;55.476;14.282;2024-02-21T05:50:25;35.97;;;13.80;;
81952;SDS011;71454;55.476;14.282;2024-02-21T05:52:51;40.35;;;13.57;;
81952;SDS011;71454;55.476;14.282;2024-02-21T05:55:17;36.05;;;13.18;;
81952;SDS011;71454;55.476;14.282;2024-02-21T05:57:42;43.97;;;13.88;;
81952;SDS011;71454;55.476;14.282;2024-02-21T06:00:08;40.83;;;14.87;;
81952;SDS011;71454;55.476;14.282;2024-02-21T06:02:33;45.38;;;16.33;;
81952;SDS011;71454;55.476;14.282;2024-02-21T06:04:58;44.47;;;15.47;;
81952;SDS011;71454;55.476;14.282;2024-02-21T06:07:24;46.30;;;16.23;;
81952;SDS011;71454;55.476;14.282;2024-02-21T06:09:49;47.63;;;17.00;;
81952;SDS011;71454;55.476;14.282;2024-02-21T06:12:14;42.25;;;15.45;;
81952;SDS011;71454;55.476;14.282;2024-02-21T06:14:39;47.50;;;16.30;;
81952;SDS011;71454;55.476;14.282;2024-02-21T06:17:05;54.53;;;17.73;;
81952;SDS011;71454;55.476;14.282;2024-02-21T06:19:30;53.17;;;17.35;;
81952;SDS011;71454;55.476;14.282;2024-02-21T06:21:55;53.80;;;16.67;;
81952;SDS011;71454;55.476;14.282;2024-02-21T06:24:21;46.72;;;15.77;;
81952;SDS011;71454;55.476;14.282;2024-02-21T06:26:46;45.17;;;15.93;;
81952;SDS011;71454;55.476;14.282;2024-02-21T06:29:12;42.67;;;15.32;;
81952;SDS011;71454;55.476;14.282;2024-02-21T06:31:38;45.85;;;14.75;;
81952;SDS011;71454;55.476;14.282;2024-02-21T06:34:04;40.53;;;13.90;;
81952;SDS011;71454;55.476;14.282;2024-02-21T06:36:29;42.35;;;14.50;;
81952;SDS011;71454;55.476;14.282;2024-02-21T06:38:54;47.75;;;15.35;;
81952;SDS011;71454;55.476;14.282;2024-02-21T06:41:22;45.08;;;14.73;;
81952;SDS011;71454;55.476;14.282;2024-02-21T06:43:48;33.38;;;12.40;;
81952;SDS011;71454;55.476;14.282;2024-02-21T06:46:23;37.42;;;12.20;;
81952;SDS011;71454;55.476;14.282;2024-02-21T06:48:49;31.30;;;12.23;;
81952;SDS011;71454;55.476;14.282;2024-02-21T06:51:14;31.90;;;11.30;;
81952;SDS011;71454;55.476;14.282;2024-02-21T06:53:39;32.77;;;12.13;;
81952;SDS011;71454;55.476;14.282;2024-02-21T06:56:05;37.05;;;14.63;;
81952;SDS011;71454;55.476;14.282;2024-02-21T06:58:30;40.42;;;11.77;;
81952;SDS011;71454;55.476;14.282;2024-02-21T07:00:56;35.33;;;12.15;;
81952;SDS011;71454;55.476;14.282;2024-02-21T07:03:21;33.80;;;11.45;;
81952;SDS011;71454;55.476;14.282;2024-02-21T07:05:46;37.35;;;12.10;;
81952;SDS011;71454;55.476;14.282;2024-02-21T07:08:11;32.65;;;11.88;;
81952;SDS011;71454;55.476;14.282;2024-02-21T07:10:37;29.40;;;11.07;;
81952;SDS011;71454;55.476;14.282;2024-02-21T07:13:02;28.60;;;11.80;;
81952;SDS011;71454;55.476;14.282;2024-02-21T07:15:27;33.42;;;11.10;;
81952;SDS011;71454;55.476;14.282;2024-02-21T07:17:54;27.17;;;9.48;;
81952;SDS011;71454;55.476;14.282;2024-02-21T07:20:20;26.85;;;9.77;;
81952;SDS011;71454;55.476;14.282;2024-02-21T07:22:45;23.40;;;9.10;;
81952;SDS011;71454;55.476;14.282;2024-02-21T07:25:11;23.48;;;9.50;;
81952;SDS011;71454;55.476;14.282;2024-02-21T07:27:36;24.33;;;8.47;;
81952;SDS011;71454;55.476;14.282;2024-02-21T07:30:02;23.25;;;7.93;;
81952;SDS011;71454;55.476;14.282;2024-02-21T07:32:27;21.42;;;7.28;;
81952;SDS011;71454;55.476;14.282;2024-02-21T07:34:53;17.70;;;5.80;;
81952;SDS011;71454;55.476;14.282;2024-02-21T07:37:18;26.73;;;7.35;;
81952;SDS011;71454;55.476;14.282;2024-02-21T07:39:43;15.50;;;6.03;;
81952;SDS011;71454;55.476;14.282;2024-02-21T07:42:08;16.27;;;5.77;;
81952;SDS011;71454;55.476;14.282;2024-02-21T07:44:34;15.15;;;5.80;;
81952;SDS011;71454;55.476;14.282;2024-02-21T07:46:59;16.02;;;5.20;;
81952;SDS011;71454;55.476;14.282;2024-02-21T07:49:25;18.10;;;5.25;;
81952;SDS011;71454;55.476;14.282;2024-02-21T07:51:50;13.40;;;5.57;;
81952;SDS011;71454;55.476;14.282;2024-02-21T07:54:15;14.38;;;4.75;;
81952;SDS011;71454;55.476;14.282;2024-02-21T07:56:41;16.02;;;5.90;;
81952;SDS011;71454;55.476;14.282;2024-02-21T07:59:06;12.50;;;5.07;;
81952;SDS011;71454;55.476;14.282;2024-02-21T08:01:32;11.95;;;4.68;;
81952;SDS011;71454;55.476;14.282;2024-02-21T08:03:58;12.20;;;4.95;;
81952;SDS011;71454;55.476;14.282;2024-02-21T08:06:24;14.23;;;4.28;;
81952;SDS011;71454;55.476;14.282;2024-02-21T08:08:49;16.33;;;4.78;;
81952;SDS011;71454;55.476;14.282;2024-02-21T08:11:14;13.55;;;4.40;;
81952;SDS011;71454;55.476;14.282;2024-02-21T08:13:40;14.88;;;4.57;;
81952;SDS011;71454;55.476;14.282;2024-02-21T08:16:05;14.75;;;4.03;;
81952;SDS011;71454;55.476;14.282;2024-02-21T08:18:33;13.18;;;4.28;;
81952;SDS011;71454;55.476;14.282;2024-02-21T08:21:02;13.00;;;4.07;;
81952;SDS011;71454;55.476;14.282;2024-02-21T08:23:28;17.33;;;4.80;;
81952;SDS011;71454;55.476;14.282;2024-02-21T08:25:53;13.10;;;3.22;;
81952;SDS011;71454;55.476;14.282;2024-02-21T08:28:19;11.45;;;4.32;;
81952;SDS011;71454;55.476;14.282;2024-02-21T08:30:44;12.20;;;3.63;;
81952;SDS011;71454;55.476;14.282;2024-02-21T08:33:12;13.98;;;3.15;;
81952;SDS011;71454;55.476;14.282;2024-02-21T08:35:38;14.18;;;2.67;;
81952;SDS011;71454;55.476;14.282;2024-02-21T08:38:03;12.15;;;2.55;;
81952;SDS011;71454;55.476;14.282;2024-02-21T08:40:28;11.52;;;2.40;;
81952;SDS011;71454;55.476;14.282;2024-02-21T08:42:54;12.13;;;2.08;;
81952;SDS011;71454;55.476;14.282;2024-02-21T08:45:19;11.95;;;2.47;;
81952;SDS011;71454;55.476;14.282;2024-02-21T08:47:44;10.63;;;1.83;;
81952;SDS011;71454;55.476;14.282;2024-02-21T08:50:10;14.27;;;2.15;;
81952;SDS011;71454;55.476;14.282;2024-02-21T08:52:36;10.77;;;2.13;;
81952;SDS011;71454;55.476;14.282;2024-02-21T08:55:01;10.90;;;1.90;;
81952;SDS011;71454;55.476;14.282;2024-02-21T08:57:26;14.90;;;2.07;;
81952;SDS011;71454;55.476;14.282;2024-02-21T08:59:52;13.15;;;2.22;;
81952;SDS011;71454;55.476;14.282;2024-02-21T09:02:17;13.30;;;2.50;;
81952;SDS011;71454;55.476;14.282;2024-02-21T09:04:42;14.03;;;2.17;;
81952;SDS011;71454;55.476;14.282;2024-02-21T09:07:09;17.50;;;3.22;;
81952;SDS011;71454;55.476;14.282;2024-02-21T09:09:34;14.90;;;2.38;;
81952;SDS011;71454;55.476;14.282;2024-02-21T09:12:00;11.93;;;2.08;;
81952;SDS011;71454;55.476;14.282;2024-02-21T09:14:31;15.20;;;2.15;;
81952;SDS011;71454;55.476;14.282;2024-02-21T09:16:56;16.55;;;2.33;;
81952;SDS011;71454;55.476;14.282;2024-02-21T09:19:21;13.33;;;2.37;;
81952;SDS011;71454;55.476;14.282;2024-02-21T09:21:47;18.42;;;3.63;;
81952;SDS011;71454;55.476;14.282;2024-02-21T09:24:12;13.85;;;2.55;;
81952;SDS011;71454;55.476;14.282;2024-02-21T09:26:37;17.60;;;2.53;;
81952;SDS011;71454;55.476;14.282;2024-02-21T09:29:03;12.38;;;2.88;;
81952;SDS011;71454;55.476;14.282;2024-02-21T09:31:29;21.80;;;2.15;;
81952;SDS011;71454;55.476;14.282;2024-02-21T09:33:54;15.05;;;2.70;;
81952;SDS011;71454;55.476;14.282;2024-02-21T09:36:19;14.35;;;2.92;;
81952;SDS011;71454;55.476;14.282;2024-02-21T09:38:46;12.30;;;2.65;;
81952;SDS011;71454;55.476;14.282;2024-02-21T09:41:15;17.15;;;2.83;;
81952;SDS011;71454;55.476;14.282;2024-02-21T09:43:44;15.02;;;2.35;;
81952;SDS011;71454;55.476;14.282;2024-02-21T09:46:16;21.02;;;2.53;;
81952;SDS011;71454;55.476;14.282;2024-02-21T09:48:46;19.38;;;2.38;;
81952;SDS011;71454;55.476;14.282;2024-02-21T09:51:16;23.25;;;3.30;;
81952;SDS011;71454;55.476;14.282;2024-02-21T09:53:42;23.35;;;2.38;;
81952;SDS011;71454;55.476;14.282;2024-02-21T09:56:08;15.88;;;2.38;;
81952;SDS011;71454;55.476;14.282;2024-02-21T09:58:34;16.02;;;2.03;;
81952;SDS011;71454;55.476;14.282;2024-02-21T10:00:59;15.35;;;2.97;;
81952;SDS011;71454;55.476;14.282;2024-02-21T10:03:25;18.65;;;2.75;;
81952;SDS011;71454;55.476;14.282;2024-02-21T10:05:50;16.30;;;2.55;;
81952;SDS011;71454;55.476;14.282;2024-02-21T10:08:16;16.80;;;2.38;;
81952;SDS011;71454;55.476;14.282;2024-02-21T10:10:44;14.73;;;2.88;;
81952;SDS011;71454;55.476;14.282;2024-02-21T10:13:26;18.63;;;2.42;;
81952;SDS011;71454;55.476;14.282;2024-02-21T10:16:04;14.75;;;2.33;;
81952;SDS011;71454;55.476;14.282;2024-02-21T10:18:30;11.93;;;1.75;;
81952;SDS011;71454;55.476;14.282;2024-02-21T10:21:05;17.65;;;2.20;;
81952;SDS011;71454;55.476;14.282;2024-02-21T10:23:47;15.68;;;2.72;;
81952;SDS011;71454;55.476;14.282;2024-02-21T10:26:14;18.42;;;2.92;;
81952;SDS011;71454;55.476;14.282;2024-02-21T10:28:39;14.25;;;2.47;;
81952;SDS011;71454;55.476;14.282;2024-02-21T10:31:10;20.70;;;2.67;;
81952;SDS011;71454;55.476;14.282;2024-02-21T10:33:35;13.20;;;2.78;;
81952;SDS011;71454;55.476;14.282;2024-02-21T10:36:10;21.70;;;3.45;;
81952;SDS011;71454;55.476;14.282;2024-02-21T10:38:38;18.80;;;2.95;;
81952;SDS011;71454;55.476;14.282;2024-02-21T10:41:04;16.40;;;2.13;;
81952;SDS011;71454;55.476;14.282;2024-02-21T10:43:30;9.63;;;2.15;;
81952;SDS011;71454;55.476;14.282;2024-02-21T10:45:59;16.05;;;2.90;;
81952;SDS011;71454;55.476;14.282;2024-02-21T10:48:29;23.08;;;4.20;;
81952;SDS011;71454;55.476;14.282;2024-02-21T10:50:57;13.30;;;2.08;;
81952;SDS011;71454;55.476;14.282;2024-02-21T10:56:06;14.68;;;1.83;;
81952;SDS011;71454;55.476;14.282;2024-02-21T10:58:36;19.77;;;2.20;;
81952;SDS011;71454;55.476;14.282;2024-02-21T11:01:02;17.27;;;2.65;;
81952;SDS011;71454;55.476;14.282;2024-02-21T11:03:28;15.65;;;2.00;;
81952;SDS011;71454;55.476;14.282;2024-02-21T11:05:54;14.43;;;2.20;;
81952;SDS011;71454;55.476;14.282;2024-02-21T11:08:20;12.10;;;2.70;;
81952;SDS011;71454;55.476;14.282;2024-02-21T11:10:46;10.95;;;1.77;;
81952;SDS011;71454;55.476;14.282;2024-02-21T11:13:11;10.82;;;1.20;;
81952;SDS011;71454;55.476;14.282;2024-02-21T11:15:36;12.10;;;1.88;;
81952;SDS011;71454;55.476;14.282;2024-02-21T11:18:01;15.02;;;2.13;;
81952;SDS011;71454;55.476;14.282;2024-02-21T11:20:36;11.68;;;1.52;;
81952;SDS011;71454;55.476;14.282;2024-02-21T11:23:02;9.48;;;1.50;;
81952;SDS011;71454;55.476;14.282;2024-02-21T11:25:28;8.65;;;2.67;;
81952;SDS011;71454;55.476;14.282;2024-02-21T11:28:03;9.63;;;1.77;;
81952;SDS011;71454;55.476;14.282;2024-02-21T11:30:35;16.65;;;2.50;;
81952;SDS011;71454;55.476;14.282;2024-02-21T11:33:05;13.07;;;2.10;;
81952;SDS011;71454;55.476;14.282;2024-02-21T11:35:31;10.48;;;2.10;;
81952;SDS011;71454;55.476;14.282;2024-02-21T11:38:06;11.40;;;1.73;;
81952;SDS011;71454;55.476;14.282;2024-02-21T11:40:33;7.35;;;1.77;;
81952;SDS011;71454;55.476;14.282;2024-02-21T11:42:59;21.42;;;3.20;;
81952;SDS011;71454;55.476;14.282;2024-02-21T11:45:25;12.10;;;2.03;;
81952;SDS011;71454;55.476;14.282;2024-02-21T11:47:51;17.17;;;2.05;;
81952;SDS011;71454;55.476;14.282;2024-02-21T11:50:16;21.05;;;2.47;;
81952;SDS011;71454;55.476;14.282;2024-02-21T11:52:41;14.00;;;2.63;;
81952;SDS011;71454;55.476;14.282;2024-02-21T11:55:06;16.05;;;2.50;;
81952;SDS011;71454;55.476;14.282;2024-02-21T11:57:33;12.13;;;2.03;;
81952;SDS011;71454;55.476;14.282;2024-02-21T12:00:10;12.88;;;1.85;;
81952;SDS011;71454;55.476;14.282;2024-02-21T12:02:35;15.90;;;2.17;;
81952;SDS011;71454;55.476;14.282;2024-02-21T12:05:00;13.48;;;2.80;;
81952;SDS011;71454;55.476;14.282;2024-02-21T12:07:26;21.60;;;2.65;;
81952;SDS011;71454;55.476;14.282;2024-02-21T12:09:53;12.68;;;2.17;;
81952;SDS011;71454;55.476;14.282;2024-02-21T12:12:22;21.50;;;3.22;;
81952;SDS011;71454;55.476;14.282;2024-02-21T12:14:53;14.30;;;2.65;;
81952;SDS011;71454;55.476;14.282;2024-02-21T12:17:19;22.55;;;2.45;;
81952;SDS011;71454;55.476;14.282;2024-02-21T12:19:44;13.10;;;2.35;;
81952;SDS011;71454;55.476;14.282;2024-02-21T12:22:15;16.13;;;2.15;;
81952;SDS011;71454;55.476;14.282;2024-02-21T12:24:41;13.10;;;2.28;;
81952;SDS011;71454;55.476;14.282;2024-02-21T12:27:12;15.50;;;2.63;;
81952;SDS011;71454;55.476;14.282;2024-02-21T12:29:37;15.18;;;1.90;;
81952;SDS011;71454;55.476;14.282;2024-02-21T12:32:03;18.35;;;2.72;;
81952;SDS011;71454;55.476;14.282;2024-02-21T12:34:29;9.20;;;1.98;;
81952;SDS011;71454;55.476;14.282;2024-02-21T12:36:57;16.90;;;3.25;;
81952;SDS011;71454;55.476;14.282;2024-02-21T12:39:22;13.75;;;2.08;;
81952;SDS011;71454;55.476;14.282;2024-02-21T12:41:47;17.65;;;2.40;;
81952;SDS011;71454;55.476;14.282;2024-02-21T12:44:13;18.50;;;2.97;;
81952;SDS011;71454;55.476;14.282;2024-02-21T12:46:39;19.60;;;2.60;;
81952;SDS011;71454;55.476;14.282;2024-02-21T12:49:07;10.70;;;1.58;;
81952;SDS011;71454;55.476;14.282;2024-02-21T12:51:33;15.30;;;2.10;;
81952;SDS011;71454;55.476;14.282;2024-02-21T12:53:58;17.35;;;2.22;;
81952;SDS011;71454;55.476;14.282;2024-02-21T12:56:24;11.20;;;2.00;;
81952;SDS011;71454;55.476;14.282;2024-02-21T12:58:50;16.52;;;2.33;;
81952;SDS011;71454;55.476;14.282;2024-02-21T13:01:15;14.05;;;2.17;;
81952;SDS011;71454;55.476;14.282;2024-02-21T13:03:41;14.23;;;2.50;;
81952;SDS011;71454;55.476;14.282;2024-02-21T13:06:06;13.77;;;2.07;;
81952;SDS011;71454;55.476;14.282;2024-02-21T13:08:35;14.88;;;2.17;;
81952;SDS011;71454;55.476;14.282;2024-02-21T13:11:01;13.88;;;1.98;;
81952;SDS011;71454;55.476;14.282;2024-02-21T13:13:26;14.35;;;2.15;;
81952;SDS011;71454;55.476;14.282;2024-02-21T13:15:51;12.38;;;2.80;;
81952;SDS011;71454;55.476;14.282;2024-02-21T13:18:17;11.75;;;2.42;;
81952;SDS011;71454;55.476;14.282;2024-02-21T13:20:42;10.15;;;1.90;;
81952;SDS011;71454;55.476;14.282;2024-02-21T13:23:07;16.33;;;2.13;;
81952;SDS011;71454;55.476;14.282;2024-02-21T13:25:32;13.43;;;2.67;;
81952;SDS011;71454;55.476;14.282;2024-02-21T13:27:58;8.30;;;1.42;;
81952;SDS011;71454;55.476;14.282;2024-02-21T13:30:23;9.85;;;1.88;;
81952;SDS011;71454;55.476;14.282;2024-02-21T13:32:50;10.73;;;1.83;;
81952;SDS011;71454;55.476;14.282;2024-02-21T13:35:15;11.10;;;1.50;;
81952;SDS011;71454;55.476;14.282;2024-02-21T13:37:40;15.93;;;1.98;;
81952;SDS011;71454;55.476;14.282;2024-02-21T13:40:07;20.48;;;2.40;;
81952;SDS011;71454;55.476;14.282;2024-02-21T13:42:34;10.35;;;1.90;;
81952;SDS011;71454;55.476;14.282;2024-02-21T13:44:59;12.48;;;2.08;;
81952;SDS011;71454;55.476;14.282;2024-02-21T13:47:24;14.65;;;2.47;;
81952;SDS011;71454;55.476;14.282;2024-02-21T13:49:50;12.77;;;1.93;;
81952;SDS011;71454;55.476;14.282;2024-02-21T13:52:15;14.27;;;2.80;;
81952;SDS011;71454;55.476;14.282;2024-02-21T13:54:42;18.38;;;2.30;;
81952;SDS011;71454;55.476;14.282;2024-02-21T13:57:07;11.67;;;2.07;;
81952;SDS011;71454;55.476;14.282;2024-02-21T13:59:33;7.80;;;1.55;;
81952;SDS011;71454;55.476;14.282;2024-02-21T14:01:59;12.73;;;1.77;;
81952;SDS011;71454;55.476;14.282;2024-02-21T14:04:24;12.60;;;3.22;;
81952;SDS011;71454;55.476;14.282;2024-02-21T14:06:49;19.83;;;3.15;;
81952;SDS011;71454;55.476;14.282;2024-02-21T14:09:15;11.05;;;1.85;;
81952;SDS011;71454;55.476;14.282;2024-02-21T14:11:40;12.70;;;2.15;;
81952;SDS011;71454;55.476;14.282;2024-02-21T14:14:06;13.00;;;2.17;;